sensor_id;sensor_type;location;lat;lon;timestamp;P1;durP1;ratioP1;P2;durP2;ratioP2
76701;SDS011;70097;44.536;0.146;2023-10-31T00:01:02;0.10;;;0.10;;
76701;SDS011;70097;44.536;0.146;2023-10-31T00:06:34;0.50;;;0.50;;
76701;SDS011;70097;44.536;0.146;2023-10-31T00:12:08;0.10;;;0.10;;
76701;SDS011;70097;44.536;0.146;2023-10-31T00:17:40;0.20;;;0.20;;
76701;SDS011;70097;44.536;0.146;2023-10-31T00:23:14;0.10;;;0.10;;
76701;SDS011;70097;44.536;0.146;2023-10-31T00:28:47;0.10;;;0.10;;
76701;SDS011;70097;44.536;0.146;2023-10-31T00:34:21;0.77;;;0.77;;
76701;SDS011;70097;44.536;0.146;2023-10-31T00:39:53;0.10;;;0.10;;
76701;SDS011;70097;44.536;0.146;2023-10-31T00:45:26;0.10;;;0.10;;
76701;SDS011;70097;44.536;0.146;2023-10-31T00:50:59;0.10;;;0.10;;
76701;SDS011;70097;44.536;0.146;2023-10-31T00:56:32;0.10;;;0.10;;
76701;SDS011;70097;44.536;0.146;2023-10-31T01:02:06;0.37;;;0.37;;
76701;SDS011;70097;44.536;0.146;2023-10-31T01:07:39;0.20;;;0.20;;
76701;SDS011;70097;44.536;0.146;2023-10-31T01:13:11;0.17;;;0.17;;
76701;SDS011;70097;44.536;0.146;2023-10-31T01:18:44;0.10;;;0.10;;
76701;SDS011;70097;44.536;0.146;2023-10-31T01:24:17;0.10;;;0.10;;
76701;SDS011;70097;44.536;0.146;2023-10-31T01:29:50;0.20;;;0.20;;
76701;SDS011;70097;44.536;0.146;2023-10-31T01:40:57;0.10;;;0.10;;
76701;SDS011;70097;44.536;0.146;2023-10-31T01:46:28;0.83;;;0.60;;
76701;SDS011;70097;44.536;0.146;2023-10-31T01:52:01;0.47;;;0.30;;
76701;SDS011;70097;44.536;0.146;2023-10-31T01:57:34;1.50;;;1.40;;
76701;SDS011;70097;44.536;0.146;2023-10-31T02:03:06;0.10;;;0.10;;
76701;SDS011;70097;44.536;0.146;2023-10-31T02:08:38;0.97;;;0.93;;
76701;SDS011;70097;44.536;0.146;2023-10-31T02:14:10;24.67;;;1.90;;
76701;SDS011;70097;44.536;0.146;2023-10-31T02:19:43;6.70;;;1.03;;
76701;SDS011;70097;44.536;0.146;2023-10-31T02:25:15;0.10;;;0.10;;
76701;SDS011;70097;44.536;0.146;2023-10-31T02:30:47;0.40;;;0.40;;
76701;SDS011;70097;44.536;0.146;2023-10-31T02:36:20;0.10;;;0.10;;
76701;SDS011;70097;44.536;0.146;2023-10-31T02:41:53;1.70;;;0.93;;
76701;SDS011;70097;44.536;0.146;2023-10-31T02:47:26;0.30;;;0.20;;
76701;SDS011;70097;44.536;0.146;2023-10-31T02:52:59;0.10;;;0.10;;
76701;SDS011;70097;44.536;0.146;2023-10-31T02:58:31;0.60;;;0.60;;
76701;SDS011;70097;44.536;0.146;2023-10-31T03:04:05;2.43;;;0.93;;
76701;SDS011;70097;44.536;0.146;2023-10-31T03:09:36;0.30;;;0.30;;
76701;SDS011;70097;44.536;0.146;2023-10-31T03:15:09;0.10;;;0.10;;
76701;SDS011;70097;44.536;0.146;2023-10-31T03:20:43;0.10;;;0.10;;
76701;SDS011;70097;44.536;0.146;2023-10-31T03:26:16;1.27;;;1.17;;
76701;SDS011;70097;44.536;0.146;2023-10-31T03:31:48;0.10;;;0.10;;
76701;SDS011;70097;44.536;0.146;2023-10-31T03:37:21;2.90;;;2.63;;
76701;SDS011;70097;44.536;0.146;2023-10-31T03:42:54;2.27;;;0.67;;
76701;SDS011;70097;44.536;0.146;2023-10-31T03:48:28;0.10;;;0.10;;
76701;SDS011;70097;44.536;0.146;2023-10-31T03:54:01;0.10;;;0.10;;
76701;SDS011;70097;44.536;0.146;2023-10-31T03:59:33;0.87;;;0.17;;
76701;SDS011;70097;44.536;0.146;2023-10-31T04:05:05;2.63;;;0.80;;
76701;SDS011;70097;44.536;0.146;2023-10-31T04:10:39;2.00;;;0.97;;
76701;SDS011;70097;44.536;0.146;2023-10-31T04:16:11;7.43;;;0.50;;
76701;SDS011;70097;44.536;0.146;2023-10-31T04:21:44;0.10;;;0.10;;
76701;SDS011;70097;44.536;0.146;2023-10-31T04:27:18;0.10;;;0.10;;
76701;SDS011;70097;44.536;0.146;2023-10-31T04:32:50;1.00;;;0.77;;
76701;SDS011;70097;44.536;0.146;2023-10-31T04:38:22;0.13;;;0.13;;
76701;SDS011;70097;44.536;0.146;2023-10-31T04:43:54;0.87;;;0.53;;
76701;SDS011;70097;44.536;0.146;2023-10-31T04:49:27;0.30;;;0.30;;
76701;SDS011;70097;44.536;0.146;2023-10-31T04:55:00;0.33;;;0.33;;
76701;SDS011;70097;44.536;0.146;2023-10-31T05:00:32;0.10;;;0.10;;
76701;SDS011;70097;44.536;0.146;2023-10-31T05:06:06;0.20;;;0.20;;
76701;SDS011;70097;44.536;0.146;2023-10-31T05:11:38;0.13;;;0.13;;
76701;SDS011;70097;44.536;0.146;2023-10-31T05:17:12;0.13;;;0.13;;
76701;SDS011;70097;44.536;0.146;2023-10-31T05:28:18;0.10;;;0.10;;
76701;SDS011;70097;44.536;0.146;2023-10-31T05:33:50;1.37;;;1.20;;
76701;SDS011;70097;44.536;0.146;2023-10-31T05:39:23;0.20;;;0.20;;
76701;SDS011;70097;44.536;0.146;2023-10-31T05:44:57;0.20;;;0.20;;
76701;SDS011;70097;44.536;0.146;2023-10-31T05:50:29;0.20;;;0.20;;
76701;SDS011;70097;44.536;0.146;2023-10-31T05:56:01;0.47;;;0.30;;
76701;SDS011;70097;44.536;0.146;2023-10-31T06:01:35;2.70;;;0.87;;
76701;SDS011;70097;44.536;0.146;2023-10-31T06:07:07;0.77;;;0.73;;
76701;SDS011;70097;44.536;0.146;2023-10-31T06:12:39;0.57;;;0.57;;
76701;SDS011;70097;44.536;0.146;2023-10-31T06:18:12;0.10;;;0.10;;
76701;SDS011;70097;44.536;0.146;2023-10-31T06:23:45;0.30;;;0.30;;
76701;SDS011;70097;44.536;0.146;2023-10-31T06:29:18;0.70;;;0.37;;
76701;SDS011;70097;44.536;0.146;2023-10-31T06:34:51;0.20;;;0.20;;
76701;SDS011;70097;44.536;0.146;2023-10-31T06:40:25;1.43;;;1.33;;
76701;SDS011;70097;44.536;0.146;2023-10-31T06:45:58;0.27;;;0.27;;
76701;SDS011;70097;44.536;0.146;2023-10-31T06:51:31;1.70;;;1.03;;
76701;SDS011;70097;44.536;0.146;2023-10-31T06:57:04;1.10;;;0.50;;
76701;SDS011;70097;44.536;0.146;2023-10-31T07:02:37;15.33;;;1.63;;
76701;SDS011;70097;44.536;0.146;2023-10-31T07:08:10;0.13;;;0.13;;
76701;SDS011;70097;44.536;0.146;2023-10-31T07:13:44;0.37;;;0.37;;
76701;SDS011;70097;44.536;0.146;2023-10-31T07:19:17;0.10;;;0.10;;
76701;SDS011;70097;44.536;0.146;2023-10-31T07:24:49;1.40;;;0.97;;
76701;SDS011;70097;44.536;0.146;2023-10-31T07:30:21;0.10;;;0.10;;
76701;SDS011;70097;44.536;0.146;2023-10-31T07:35:53;1.87;;;1.70;;
76701;SDS011;70097;44.536;0.146;2023-10-31T07:41:25;0.67;;;0.37;;
76701;SDS011;70097;44.536;0.146;2023-10-31T07:46:59;0.13;;;0.13;;
76701;SDS011;70097;44.536;0.146;2023-10-31T07:52:32;1.33;;;1.23;;
76701;SDS011;70097;44.536;0.146;2023-10-31T07:58:05;0.40;;;0.40;;
76701;SDS011;70097;44.536;0.146;2023-10-31T08:03:38;13.93;;;1.67;;
76701;SDS011;70097;44.536;0.146;2023-10-31T08:09:11;13.63;;;2.37;;
76701;SDS011;70097;44.536;0.146;2023-10-31T08:14:45;15.07;;;2.30;;
76701;SDS011;70097;44.536;0.146;2023-10-31T08:20:18;13.60;;;2.70;;
76701;SDS011;70097;44.536;0.146;2023-10-31T08:25:51;17.50;;;2.97;;
76701;SDS011;70097;44.536;0.146;2023-10-31T08:31:23;16.33;;;2.93;;
76701;SDS011;70097;44.536;0.146;2023-10-31T08:36:56;17.83;;;3.30;;
76701;SDS011;70097;44.536;0.146;2023-10-31T08:42:28;19.13;;;3.67;;
76701;SDS011;70097;44.536;0.146;2023-10-31T08:48:02;22.57;;;4.90;;
76701;SDS011;70097;44.536;0.146;2023-10-31T08:53:35;20.23;;;5.80;;
76701;SDS011;70097;44.536;0.146;2023-10-31T08:59:07;12.00;;;2.30;;
76701;SDS011;70097;44.536;0.146;2023-10-31T09:04:40;20.87;;;4.17;;
76701;SDS011;70097;44.536;0.146;2023-10-31T09:10:13;15.33;;;2.97;;
76701;SDS011;70097;44.536;0.146;2023-10-31T09:15:46;13.00;;;2.10;;
76701;SDS011;70097;44.536;0.146;2023-10-31T09:21:19;16.57;;;2.67;;
76701;SDS011;70097;44.536;0.146;2023-10-31T09:26:51;15.53;;;2.57;;
76701;SDS011;70097;44.536;0.146;2023-10-31T09:32:24;15.33;;;2.97;;
76701;SDS011;70097;44.536;0.146;2023-10-31T09:37:56;18.03;;;3.33;;
76701;SDS011;70097;44.536;0.146;2023-10-31T09:43:29;28.47;;;3.47;;
76701;SDS011;70097;44.536;0.146;2023-10-31T09:49:02;16.47;;;3.43;;
76701;SDS011;70097;44.536;0.146;2023-10-31T09:54:34;16.20;;;2.77;;
76701;SDS011;70097;44.536;0.146;2023-10-31T10:00:07;25.90;;;4.00;;
76701;SDS011;70097;44.536;0.146;2023-10-31T10:05:39;12.80;;;2.30;;
76701;SDS011;70097;44.536;0.146;2023-10-31T10:16:45;13.77;;;2.20;;
76701;SDS011;70097;44.536;0.146;2023-10-31T10:22:20;7.43;;;1.80;;
76701;SDS011;70097;44.536;0.146;2023-10-31T10:27:51;12.77;;;1.83;;
76701;SDS011;70097;44.536;0.146;2023-10-31T10:33:24;18.57;;;2.43;;
76701;SDS011;70097;44.536;0.146;2023-10-31T10:38:56;8.00;;;1.90;;
76701;SDS011;70097;44.536;0.146;2023-10-31T10:44:31;9.97;;;2.17;;
76701;SDS011;70097;44.536;0.146;2023-10-31T10:50:02;13.93;;;2.77;;
76701;SDS011;70097;44.536;0.146;2023-10-31T10:55:35;9.57;;;2.13;;
76701;SDS011;70097;44.536;0.146;2023-10-31T11:01:08;10.37;;;3.77;;
76701;SDS011;70097;44.536;0.146;2023-10-31T11:06:41;19.50;;;3.50;;
76701;SDS011;70097;44.536;0.146;2023-10-31T11:12:13;11.13;;;2.37;;
76701;SDS011;70097;44.536;0.146;2023-10-31T11:17:46;7.17;;;1.30;;
76701;SDS011;70097;44.536;0.146;2023-10-31T11:23:18;13.30;;;2.47;;
76701;SDS011;70097;44.536;0.146;2023-10-31T11:28:51;11.73;;;1.73;;
76701;SDS011;70097;44.536;0.146;2023-10-31T11:34:23;7.87;;;1.53;;
76701;SDS011;70097;44.536;0.146;2023-10-31T11:45:30;18.27;;;2.20;;
76701;SDS011;70097;44.536;0.146;2023-10-31T11:51:03;5.93;;;1.30;;
76701;SDS011;70097;44.536;0.146;2023-10-31T11:56:36;9.00;;;2.10;;
76701;SDS011;70097;44.536;0.146;2023-10-31T12:02:12;10.00;;;2.37;;
76701;SDS011;70097;44.536;0.146;2023-10-31T12:07:42;11.07;;;1.67;;
76701;SDS011;70097;44.536;0.146;2023-10-31T12:13:14;6.57;;;1.37;;
76701;SDS011;70097;44.536;0.146;2023-10-31T12:18:53;9.10;;;1.73;;
76701;SDS011;70097;44.536;0.146;2023-10-31T12:24:20;13.83;;;1.63;;
76701;SDS011;70097;44.536;0.146;2023-10-31T12:30:00;12.87;;;2.57;;
76701;SDS011;70097;44.536;0.146;2023-10-31T12:35:26;9.67;;;1.47;;
76701;SDS011;70097;44.536;0.146;2023-10-31T12:41:00;7.60;;;1.27;;
76701;SDS011;70097;44.536;0.146;2023-10-31T12:46:32;6.60;;;1.37;;
76701;SDS011;70097;44.536;0.146;2023-10-31T12:52:04;7.63;;;1.57;;
76701;SDS011;70097;44.536;0.146;2023-10-31T12:57:38;4.53;;;1.80;;
76701;SDS011;70097;44.536;0.146;2023-10-31T13:03:11;7.03;;;1.83;;
76701;SDS011;70097;44.536;0.146;2023-10-31T13:08:45;7.63;;;1.17;;
76701;SDS011;70097;44.536;0.146;2023-10-31T13:14:17;6.87;;;2.00;;
76701;SDS011;70097;44.536;0.146;2023-10-31T13:19:51;9.37;;;1.57;;
76701;SDS011;70097;44.536;0.146;2023-10-31T13:25:23;5.67;;;1.17;;
76701;SDS011;70097;44.536;0.146;2023-10-31T13:30:56;13.97;;;1.73;;
76701;SDS011;70097;44.536;0.146;2023-10-31T13:36:28;11.17;;;3.10;;
76701;SDS011;70097;44.536;0.146;2023-10-31T13:42:01;10.87;;;2.67;;
76701;SDS011;70097;44.536;0.146;2023-10-31T13:47:34;9.70;;;1.93;;
76701;SDS011;70097;44.536;0.146;2023-10-31T13:58:39;7.40;;;2.87;;
76701;SDS011;70097;44.536;0.146;2023-10-31T14:04:13;9.63;;;1.90;;
76701;SDS011;70097;44.536;0.146;2023-10-31T14:09:46;11.10;;;2.30;;
76701;SDS011;70097;44.536;0.146;2023-10-31T14:15:20;13.97;;;2.00;;
76701;SDS011;70097;44.536;0.146;2023-10-31T14:20:52;10.67;;;2.20;;
76701;SDS011;70097;44.536;0.146;2023-10-31T14:26:26;14.27;;;2.03;;
76701;SDS011;70097;44.536;0.146;2023-10-31T14:32:05;8.37;;;1.10;;
76701;SDS011;70097;44.536;0.146;2023-10-31T14:37:31;8.20;;;1.20;;
76701;SDS011;70097;44.536;0.146;2023-10-31T14:43:04;7.90;;;2.57;;
76701;SDS011;70097;44.536;0.146;2023-10-31T14:48:36;10.10;;;2.07;;
76701;SDS011;70097;44.536;0.146;2023-10-31T14:54:09;8.73;;;1.13;;
76701;SDS011;70097;44.536;0.146;2023-10-31T14:59:42;7.27;;;1.50;;
76701;SDS011;70097;44.536;0.146;2023-10-31T15:05:15;10.93;;;1.87;;
76701;SDS011;70097;44.536;0.146;2023-10-31T15:10:48;5.83;;;2.27;;
76701;SDS011;70097;44.536;0.146;2023-10-31T15:16:20;8.03;;;1.23;;
76701;SDS011;70097;44.536;0.146;2023-10-31T15:21:53;12.57;;;1.60;;
76701;SDS011;70097;44.536;0.146;2023-10-31T15:27:25;7.83;;;1.13;;
76701;SDS011;70097;44.536;0.146;2023-10-31T15:32:58;10.23;;;2.63;;
76701;SDS011;70097;44.536;0.146;2023-10-31T15:38:29;10.27;;;3.13;;
76701;SDS011;70097;44.536;0.146;2023-10-31T15:44:02;10.77;;;1.10;;
76701;SDS011;70097;44.536;0.146;2023-10-31T15:49:35;11.80;;;1.47;;
76701;SDS011;70097;44.536;0.146;2023-10-31T15:55:08;7.00;;;1.30;;
76701;SDS011;70097;44.536;0.146;2023-10-31T16:00:41;8.73;;;1.60;;
76701;SDS011;70097;44.536;0.146;2023-10-31T16:06:15;6.60;;;1.53;;
76701;SDS011;70097;44.536;0.146;2023-10-31T16:11:46;13.23;;;2.00;;
76701;SDS011;70097;44.536;0.146;2023-10-31T16:17:18;11.53;;;2.10;;
76701;SDS011;70097;44.536;0.146;2023-10-31T16:22:52;11.37;;;2.03;;
76701;SDS011;70097;44.536;0.146;2023-10-31T16:28:25;12.77;;;1.43;;
76701;SDS011;70097;44.536;0.146;2023-10-31T16:33:57;12.83;;;2.20;;
76701;SDS011;70097;44.536;0.146;2023-10-31T16:39:30;10.77;;;2.20;;
76701;SDS011;70097;44.536;0.146;2023-10-31T16:45:04;40.90;;;17.00;;
76701;SDS011;70097;44.536;0.146;2023-10-31T16:50:37;44.83;;;19.77;;
76701;SDS011;70097;44.536;0.146;2023-10-31T16:56:10;10.70;;;1.60;;
76701;SDS011;70097;44.536;0.146;2023-10-31T17:01:43;9.77;;;2.10;;
76701;SDS011;70097;44.536;0.146;2023-10-31T17:07:15;16.80;;;4.83;;
76701;SDS011;70097;44.536;0.146;2023-10-31T17:12:48;13.77;;;6.60;;
76701;SDS011;70097;44.536;0.146;2023-10-31T17:18:20;11.23;;;3.27;;
76701;SDS011;70097;44.536;0.146;2023-10-31T17:23:53;12.10;;;2.43;;
76701;SDS011;70097;44.536;0.146;2023-10-31T17:29:25;13.73;;;2.63;;
76701;SDS011;70097;44.536;0.146;2023-10-31T17:34:59;9.33;;;3.60;;
76701;SDS011;70097;44.536;0.146;2023-10-31T17:40:31;21.37;;;4.97;;
76701;SDS011;70097;44.536;0.146;2023-10-31T17:46:03;14.53;;;3.60;;
76701;SDS011;70097;44.536;0.146;2023-10-31T17:51:39;11.77;;;4.13;;
76701;SDS011;70097;44.536;0.146;2023-10-31T17:57:09;12.80;;;2.67;;
76701;SDS011;70097;44.536;0.146;2023-10-31T18:02:42;10.00;;;2.40;;
76701;SDS011;70097;44.536;0.146;2023-10-31T18:08:16;11.13;;;2.43;;
76701;SDS011;70097;44.536;0.146;2023-10-31T18:13:48;12.20;;;3.00;;
76701;SDS011;70097;44.536;0.146;2023-10-31T18:19:21;10.00;;;3.10;;
76701;SDS011;70097;44.536;0.146;2023-10-31T18:24:55;11.63;;;2.97;;
76701;SDS011;70097;44.536;0.146;2023-10-31T18:30:28;7.73;;;2.73;;
76701;SDS011;70097;44.536;0.146;2023-10-31T18:36:00;12.20;;;2.40;;
76701;SDS011;70097;44.536;0.146;2023-10-31T18:41:33;10.67;;;2.60;;
76701;SDS011;70097;44.536;0.146;2023-10-31T18:47:05;7.63;;;1.70;;
76701;SDS011;70097;44.536;0.146;2023-10-31T18:52:37;13.23;;;3.00;;
76701;SDS011;70097;44.536;0.146;2023-10-31T18:58:10;12.77;;;3.50;;
76701;SDS011;70097;44.536;0.146;2023-10-31T19:03:43;9.97;;;3.27;;
76701;SDS011;70097;44.536;0.146;2023-10-31T19:09:16;15.23;;;3.13;;
76701;SDS011;70097;44.536;0.146;2023-10-31T19:14:49;14.47;;;3.37;;
76701;SDS011;70097;44.536;0.146;2023-10-31T19:20:22;13.37;;;3.23;;
76701;SDS011;70097;44.536;0.146;2023-10-31T19:25:56;12.13;;;3.43;;
76701;SDS011;70097;44.536;0.146;2023-10-31T19:31:28;10.17;;;3.27;;
76701;SDS011;70097;44.536;0.146;2023-10-31T19:37:01;14.07;;;3.47;;
76701;SDS011;70097;44.536;0.146;2023-10-31T19:42:33;13.10;;;3.10;;
76701;SDS011;70097;44.536;0.146;2023-10-31T19:48:05;14.23;;;2.93;;
76701;SDS011;70097;44.536;0.146;2023-10-31T19:53:38;11.13;;;3.37;;
76701;SDS011;70097;44.536;0.146;2023-10-31T19:59:10;9.00;;;3.60;;
76701;SDS011;70097;44.536;0.146;2023-10-31T20:04:44;10.80;;;2.00;;
76701;SDS011;70097;44.536;0.146;2023-10-31T20:10:17;9.60;;;2.43;;
76701;SDS011;70097;44.536;0.146;2023-10-31T20:15:49;8.63;;;2.80;;
76701;SDS011;70097;44.536;0.146;2023-10-31T20:21:22;12.97;;;2.63;;
76701;SDS011;70097;44.536;0.146;2023-10-31T20:26:54;11.83;;;2.73;;
76701;SDS011;70097;44.536;0.146;2023-10-31T20:32:28;16.27;;;2.63;;
76701;SDS011;70097;44.536;0.146;2023-10-31T20:38:01;10.13;;;2.10;;
76701;SDS011;70097;44.536;0.146;2023-10-31T20:43:35;9.53;;;2.30;;
76701;SDS011;70097;44.536;0.146;2023-10-31T20:49:08;13.07;;;4.07;;
76701;SDS011;70097;44.536;0.146;2023-10-31T20:54:40;13.93;;;3.73;;
76701;SDS011;70097;44.536;0.146;2023-10-31T21:00:13;12.37;;;3.60;;
76701;SDS011;70097;44.536;0.146;2023-10-31T21:05:46;11.73;;;2.80;;
76701;SDS011;70097;44.536;0.146;2023-10-31T21:11:19;12.13;;;4.17;;
76701;SDS011;70097;44.536;0.146;2023-10-31T21:16:50;13.00;;;5.37;;
76701;SDS011;70097;44.536;0.146;2023-10-31T21:22:23;13.30;;;5.53;;
76701;SDS011;70097;44.536;0.146;2023-10-31T21:27:57;19.67;;;6.13;;
76701;SDS011;70097;44.536;0.146;2023-10-31T21:33:30;17.10;;;6.27;;
76701;SDS011;70097;44.536;0.146;2023-10-31T21:39:03;16.37;;;5.70;;
76701;SDS011;70097;44.536;0.146;2023-10-31T21:44:36;13.87;;;4.90;;
76701;SDS011;70097;44.536;0.146;2023-10-31T21:50:09;23.23;;;4.27;;
76701;SDS011;70097;44.536;0.146;2023-10-31T21:55:41;16.87;;;4.00;;
76701;SDS011;70097;44.536;0.146;2023-10-31T22:01:14;11.43;;;3.57;;
76701;SDS011;70097;44.536;0.146;2023-10-31T22:06:46;11.93;;;4.90;;
76701;SDS011;70097;44.536;0.146;2023-10-31T22:12:20;12.40;;;3.77;;
76701;SDS011;70097;44.536;0.146;2023-10-31T22:17:54;10.97;;;3.57;;
76701;SDS011;70097;44.536;0.146;2023-10-31T22:23:26;12.43;;;3.67;;
76701;SDS011;70097;44.536;0.146;2023-10-31T22:28:58;14.83;;;3.77;;
76701;SDS011;70097;44.536;0.146;2023-10-31T22:34:31;15.67;;;3.33;;
76701;SDS011;70097;44.536;0.146;2023-10-31T22:40:04;15.50;;;3.23;;
76701;SDS011;70097;44.536;0.146;2023-10-31T22:45:36;14.67;;;3.70;;
76701;SDS011;70097;44.536;0.146;2023-10-31T22:51:10;12.87;;;4.07;;
76701;SDS011;70097;44.536;0.146;2023-10-31T22:56:44;13.23;;;4.40;;
76701;SDS011;70097;44.536;0.146;2023-10-31T23:02:17;16.37;;;3.80;;
76701;SDS011;70097;44.536;0.146;2023-10-31T23:07:49;15.87;;;4.37;;
76701;SDS011;70097;44.536;0.146;2023-10-31T23:13:23;15.13;;;4.77;;
76701;SDS011;70097;44.536;0.146;2023-10-31T23:18:56;15.07;;;5.50;;
76701;SDS011;70097;44.536;0.146;2023-10-31T23:24:28;9.33;;;3.97;;
76701;SDS011;70097;44.536;0.146;2023-10-31T23:30:02;15.90;;;4.93;;
76701;SDS011;70097;44.536;0.146;2023-10-31T23:35:35;19.33;;;4.57;;
76701;SDS011;70097;44.536;0.146;2023-10-31T23:41:08;11.03;;;3.03;;
76701;SDS011;70097;44.536;0.146;2023-10-31T23:46:41;16.70;;;3.70;;
76701;SDS011;70097;44.536;0.146;2023-10-31T23:52:13;14.20;;;2.90;;
76701;SDS011;70097;44.536;0.146;2023-10-31T23:57:46;13.83;;;3.20;;
